createdAt,value
2023-01-21T00:00:45.763Z,-1.20
2023-01-21T00:03:13.130Z,-1.20
2023-01-21T00:05:39.970Z,-1.20
2023-01-21T00:08:06.669Z,-1.10
2023-01-21T00:10:33.930Z,-1.10
2023-01-21T00:13:00.783Z,-1.10
2023-01-21T00:15:27.567Z,-1.10
2023-01-21T00:17:54.636Z,-1.10
2023-01-21T00:20:21.836Z,-1.10
2023-01-21T00:22:48.647Z,-1.10
2023-01-21T00:25:15.411Z,-1.10
2023-01-21T00:27:42.129Z,-1.00
2023-01-21T00:30:10.740Z,-1.00
2023-01-21T00:32:37.550Z,-1.00
2023-01-21T00:35:06.000Z,-1.10
2023-01-21T00:37:32.683Z,-1.10
2023-01-21T00:39:59.345Z,-1.10
2023-01-21T00:42:27.916Z,-1.10
2023-01-21T00:44:57.363Z,-1.10
2023-01-21T00:47:24.820Z,-1.10
2023-01-21T00:49:51.556Z,-1.10
2023-01-21T00:52:18.318Z,-1.10
2023-01-21T00:54:45.067Z,-1.10
2023-01-21T00:57:13.625Z,-1.10
2023-01-21T00:59:40.527Z,-1.20
2023-01-21T01:02:07.804Z,-1.20
2023-01-21T01:04:34.595Z,-1.20
2023-01-21T01:07:02.546Z,-1.20
2023-01-21T01:09:29.457Z,-1.30
2023-01-21T01:11:56.314Z,-1.30
2023-01-21T01:14:23.134Z,-1.40
2023-01-21T01:16:50.390Z,-1.40
2023-01-21T01:19:17.207Z,-1.50
2023-01-21T01:21:44.019Z,-1.50
2023-01-21T01:24:10.750Z,-1.60
2023-01-21T01:26:37.484Z,-1.70
2023-01-21T01:29:05.250Z,-1.80
2023-01-21T01:31:32.692Z,-2.00
2023-01-21T01:34:00.300Z,-2.10
2023-01-21T01:36:27.196Z,-2.20
2023-01-21T01:38:56.507Z,-2.30
2023-01-21T01:41:29.407Z,-2.30
2023-01-21T01:44:04.538Z,-2.50
2023-01-21T01:46:36.547Z,-2.60
2023-01-21T01:49:17.219Z,-2.70
2023-01-21T01:51:52.547Z,-2.80
2023-01-21T01:54:26.711Z,-2.90
2023-01-21T01:56:57.125Z,-2.80
2023-01-21T01:59:24.694Z,-2.90
2023-01-21T02:01:51.738Z,-2.90
2023-01-21T02:04:23.128Z,-2.90
2023-01-21T02:06:52.261Z,-3.00
2023-01-21T02:09:19.229Z,-3.00
2023-01-21T02:11:46.084Z,-3.00
2023-01-21T02:14:12.948Z,-3.00
2023-01-21T02:17:07.428Z,-3.10
2023-01-21T02:20:14.077Z,-3.00
2023-01-21T02:22:52.555Z,-3.00
2023-01-21T02:25:30.638Z,-3.10
2023-01-21T02:28:15.621Z,-3.00
2023-01-21T02:31:08.195Z,-3.10
2023-01-21T02:33:49.752Z,-3.10
2023-01-21T02:36:31.758Z,-3.10
2023-01-21T02:39:06.469Z,-3.10
2023-01-21T02:41:46.381Z,-3.10
2023-01-21T02:44:18.793Z,-3.10
2023-01-21T02:47:03.408Z,-3.10
2023-01-21T02:49:37.381Z,-3.10
2023-01-21T02:52:04.177Z,-3.10
2023-01-21T02:54:39.842Z,-3.10
2023-01-21T02:57:15.910Z,-3.10
2023-01-21T02:59:47.728Z,-3.10
2023-01-21T03:02:41.981Z,-3.10
2023-01-21T03:05:16.864Z,-3.20
2023-01-21T03:08:04.784Z,-3.20
2023-01-21T03:10:42.169Z,-3.20
2023-01-21T03:13:53.361Z,-3.20
2023-01-21T03:16:59.214Z,-3.20
2023-01-21T03:19:34.443Z,-3.30
2023-01-21T03:22:07.016Z,-3.30
2023-01-21T03:24:36.131Z,-3.30
2023-01-21T03:27:05.249Z,-3.40
2023-01-21T03:29:33.846Z,-3.40
2023-01-21T03:32:06.359Z,-3.50
2023-01-21T03:34:37.230Z,-3.50
2023-01-21T03:37:40.826Z,-3.50
2023-01-21T03:40:20.001Z,-3.60
2023-01-21T03:42:50.701Z,-3.60
2023-01-21T03:45:32.663Z,-3.60
2023-01-21T03:48:04.169Z,-3.60
2023-01-21T03:50:40.278Z,-3.70
2023-01-21T03:53:07.466Z,-3.70
2023-01-21T03:55:36.367Z,-3.80
2023-01-21T03:58:03.213Z,-3.80
2023-01-21T04:00:29.929Z,-3.80
2023-01-21T04:02:56.654Z,-3.80
2023-01-21T04:05:23.492Z,-3.90
2023-01-21T04:07:50.233Z,-4.00
2023-01-21T04:10:17.718Z,-4.00
2023-01-21T04:12:44.583Z,-4.00
2023-01-21T04:15:11.809Z,-3.90
2023-01-21T04:17:38.573Z,-3.90
2023-01-21T04:20:06.474Z,-3.80
2023-01-21T04:22:33.134Z,-3.80
2023-01-21T04:24:59.788Z,-3.80
2023-01-21T04:27:26.476Z,-3.80
2023-01-21T04:29:53.165Z,-3.70
2023-01-21T04:32:19.913Z,-3.60
2023-01-21T04:34:46.605Z,-3.50
2023-01-21T04:37:13.348Z,-3.40
2023-01-21T04:39:40.059Z,-3.30
2023-01-21T04:42:06.831Z,-3.20
2023-01-21T04:44:33.566Z,-3.10
2023-01-21T04:47:00.275Z,-3.00
2023-01-21T04:49:26.958Z,-2.90
2023-01-21T04:51:53.716Z,-2.90
2023-01-21T04:54:20.379Z,-2.90
2023-01-21T04:56:47.081Z,-2.80
2023-01-21T04:59:13.871Z,-2.80
2023-01-21T05:01:40.755Z,-2.70
2023-01-21T05:04:07.436Z,-2.70
2023-01-21T05:06:34.118Z,-2.60
2023-01-21T05:09:00.791Z,-2.60
2023-01-21T05:11:27.564Z,-2.60
2023-01-21T05:13:54.236Z,-2.50
2023-01-21T05:16:20.977Z,-2.60
2023-01-21T05:18:48.720Z,-2.50
2023-01-21T05:21:15.625Z,-2.50
2023-01-21T05:23:42.553Z,-2.50
2023-01-21T05:26:09.340Z,-2.60
2023-01-21T05:28:36.009Z,-2.70
2023-01-21T05:31:03.715Z,-2.70
2023-01-21T05:33:34.673Z,-2.80
2023-01-21T05:36:02.627Z,-2.90
2023-01-21T05:38:29.581Z,-3.00
2023-01-21T05:41:00.909Z,-3.00
2023-01-21T05:43:28.020Z,-3.00
2023-01-21T05:45:55.067Z,-3.00
2023-01-21T05:48:25.107Z,-3.00
2023-01-21T05:50:51.889Z,-3.00
2023-01-21T05:53:18.771Z,-3.00
2023-01-21T05:55:45.492Z,-3.00
2023-01-21T05:58:12.463Z,-2.90
2023-01-21T06:00:39.198Z,-2.90
2023-01-21T06:03:05.861Z,-2.90
2023-01-21T06:05:32.527Z,-2.90
2023-01-21T06:07:59.167Z,-2.90
2023-01-21T06:10:25.947Z,-2.80
2023-01-21T06:12:52.808Z,-2.70
2023-01-21T06:15:19.868Z,-2.70
2023-01-21T06:17:47.592Z,-2.80
2023-01-21T06:20:14.684Z,-2.80
2023-01-21T06:22:41.448Z,-2.80
2023-01-21T06:25:08.518Z,-2.80
2023-01-21T06:27:37.282Z,-2.80
2023-01-21T06:30:06.322Z,-2.90
2023-01-21T06:32:33.991Z,-2.90
2023-01-21T06:35:00.696Z,-2.90
2023-01-21T06:37:27.407Z,-2.90
2023-01-21T06:39:54.215Z,-2.90
2023-01-21T06:42:21.080Z,-2.90
2023-01-21T06:44:48.212Z,-2.90
2023-01-21T06:47:15.142Z,-2.90
2023-01-21T06:49:42.021Z,-2.90
2023-01-21T06:52:09.122Z,-2.90
2023-01-21T06:54:35.990Z,-2.90
2023-01-21T06:57:02.684Z,-2.90
2023-01-21T06:59:29.480Z,-2.90
2023-01-21T07:01:59.004Z,-2.90
2023-01-21T07:04:26.596Z,-3.00
2023-01-21T07:06:53.813Z,-2.80
2023-01-21T07:09:20.815Z,-2.80
2023-01-21T07:11:47.999Z,-2.80
2023-01-21T07:14:14.788Z,-2.80
2023-01-21T07:16:47.629Z,-2.70
2023-01-21T07:19:14.384Z,-2.60
2023-01-21T07:21:41.563Z,-2.60
2023-01-21T07:24:09.359Z,-2.50
2023-01-21T07:26:38.116Z,-2.40
2023-01-21T07:29:06.580Z,-2.30
2023-01-21T07:31:34.048Z,-2.20
2023-01-21T07:34:01.124Z,-2.10
2023-01-21T07:36:28.181Z,-2.10
2023-01-21T07:38:54.920Z,-2.00
2023-01-21T07:41:21.684Z,-1.90
2023-01-21T07:43:49.153Z,-1.90
2023-01-21T07:46:24.748Z,-1.80
2023-01-21T07:48:51.936Z,-1.80
2023-01-21T07:51:19.561Z,-1.70
2023-01-21T07:53:46.587Z,-1.60
2023-01-21T07:56:13.540Z,-1.60
2023-01-21T07:58:40.843Z,-1.60
2023-01-21T08:01:08.656Z,-1.50
2023-01-21T08:03:36.953Z,-1.40
2023-01-21T08:06:07.866Z,-1.30
2023-01-21T08:08:35.089Z,-1.20
2023-01-21T08:11:01.800Z,-1.10
2023-01-21T08:13:28.492Z,-1.00
2023-01-21T08:15:57.050Z,-1.00
2023-01-21T08:18:24.848Z,-0.90
2023-01-21T08:20:58.814Z,-0.80
2023-01-21T08:23:26.729Z,-0.70
2023-01-21T08:25:54.044Z,-0.60
2023-01-21T08:28:21.379Z,-0.60
2023-01-21T08:30:48.283Z,-0.30
2023-01-21T08:33:16.699Z,-0.20
2023-01-21T08:35:43.468Z,-0.20
2023-01-21T08:38:10.277Z,-0.20
2023-01-21T08:40:37.013Z,-0.10
2023-01-21T08:43:04.988Z,-0.10
2023-01-21T08:45:31.922Z,-0.10
2023-01-21T08:47:58.656Z,0.00
2023-01-21T08:50:25.436Z,0.00
2023-01-21T08:52:56.012Z,0.00
2023-01-21T08:55:27.374Z,0.00
2023-01-21T08:57:55.808Z,0.10
2023-01-21T09:00:23.916Z,0.10
2023-01-21T09:02:51.804Z,0.00
2023-01-21T09:05:19.155Z,0.00
2023-01-21T09:07:46.283Z,0.00
2023-01-21T09:10:33.434Z,0.00
2023-01-21T09:13:08.035Z,-0.10
2023-01-21T09:15:39.151Z,-0.10
2023-01-21T09:18:06.131Z,0.00
2023-01-21T09:20:32.913Z,0.00
2023-01-21T09:22:59.778Z,0.10
2023-01-21T09:25:26.577Z,0.10
2023-01-21T09:27:53.387Z,0.10
2023-01-21T09:30:20.158Z,0.10
2023-01-21T09:32:46.954Z,0.00
2023-01-21T09:35:13.766Z,0.00
2023-01-21T09:37:40.471Z,-0.10
2023-01-21T09:40:10.217Z,-0.10
2023-01-21T09:42:37.007Z,-0.20
2023-01-21T09:45:04.868Z,-0.20
2023-01-21T09:47:39.642Z,-0.20
2023-01-21T09:50:19.390Z,-0.20
2023-01-21T09:52:47.751Z,-0.30
2023-01-21T09:55:36.145Z,-0.20
2023-01-21T09:58:47.314Z,-0.30
2023-01-21T10:01:21.517Z,-0.30
2023-01-21T10:03:54.577Z,-0.30
2023-01-21T10:06:36.752Z,-0.30
2023-01-21T10:09:25.556Z,-0.30
2023-01-21T10:12:10.186Z,-0.40
2023-01-21T10:15:12.780Z,-0.40
2023-01-21T10:18:01.962Z,-0.40
2023-01-21T10:20:30.924Z,-0.40
2023-01-21T10:23:14.331Z,-0.30
2023-01-21T10:25:41.521Z,-0.30
2023-01-21T10:28:19.607Z,-0.20
2023-01-21T10:31:09.236Z,-0.20
2023-01-21T10:33:36.050Z,-0.20
2023-01-21T10:36:17.976Z,-0.10
2023-01-21T10:39:04.548Z,-0.20
2023-01-21T10:41:45.400Z,-0.20
2023-01-21T10:44:26.774Z,-0.20
2023-01-21T10:46:59.720Z,-0.10
2023-01-21T10:49:38.908Z,-0.20
2023-01-21T10:52:45.357Z,-0.20
2023-01-21T10:55:26.778Z,-0.10
2023-01-21T10:58:14.519Z,0.00
2023-01-21T11:00:44.603Z,0.10
2023-01-21T11:03:23.474Z,0.20
2023-01-21T11:05:50.256Z,0.20
2023-01-21T11:08:22.545Z,0.30
2023-01-21T11:10:53.342Z,0.50
2023-01-21T11:13:20.023Z,0.40
2023-01-21T11:15:56.577Z,0.40
2023-01-21T11:18:29.425Z,0.30
2023-01-21T11:20:59.238Z,0.40
2023-01-21T11:23:32.352Z,0.50
2023-01-21T11:26:10.162Z,0.40
2023-01-21T11:28:37.099Z,0.40
2023-01-21T11:31:10.045Z,0.40
2023-01-21T11:33:38.157Z,0.50
2023-01-21T11:36:14.597Z,0.60
2023-01-21T11:38:42.151Z,0.80
2023-01-21T11:41:11.836Z,0.90
2023-01-21T11:43:48.502Z,0.80
2023-01-21T11:46:26.003Z,1.00
2023-01-21T11:49:05.622Z,1.10
2023-01-21T11:51:32.862Z,1.20
2023-01-21T11:54:18.277Z,0.80
2023-01-21T11:56:58.228Z,1.40
2023-01-21T11:59:35.524Z,1.40
2023-01-21T12:02:29.280Z,1.40
2023-01-21T12:05:07.004Z,1.40
2023-01-21T12:07:41.204Z,1.40
2023-01-21T12:10:26.069Z,1.40
2023-01-21T12:13:16.745Z,1.40
2023-01-21T12:16:14.918Z,1.30
2023-01-21T12:18:50.969Z,1.10
2023-01-21T12:21:51.192Z,1.00
2023-01-21T12:24:34.573Z,0.90
2023-01-21T12:27:19.510Z,0.90
2023-01-21T12:30:19.626Z,0.90
2023-01-21T12:32:51.219Z,0.90
2023-01-21T12:35:28.512Z,0.90
2023-01-21T12:38:06.820Z,1.00
2023-01-21T12:40:39.319Z,0.90
2023-01-21T12:43:16.778Z,1.00
2023-01-21T12:45:54.492Z,0.90
2023-01-21T12:48:36.086Z,1.00
2023-01-21T12:51:09.978Z,1.00
2023-01-21T12:53:46.196Z,1.00
2023-01-21T12:56:39.709Z,1.10
2023-01-21T12:59:16.797Z,1.10
2023-01-21T13:01:46.623Z,1.10
2023-01-21T13:04:32.130Z,1.10
2023-01-21T13:07:02.385Z,1.20
2023-01-21T13:09:46.389Z,1.30
2023-01-21T13:12:21.489Z,1.30
2023-01-21T13:15:09.438Z,1.30
2023-01-21T13:17:40.084Z,1.30
2023-01-21T13:20:20.810Z,1.30
2023-01-21T13:23:06.121Z,1.30
2023-01-21T13:26:01.531Z,1.20
2023-01-21T13:28:39.671Z,1.20
2023-01-21T13:31:18.724Z,1.10
2023-01-21T13:34:02.671Z,1.20
2023-01-21T13:37:06.682Z,1.20
2023-01-21T13:40:11.957Z,1.20
2023-01-21T13:42:50.631Z,1.20
2023-01-21T13:45:23.429Z,1.20
2023-01-21T13:48:11.723Z,1.20
2023-01-21T13:51:05.724Z,1.20
2023-01-21T13:54:11.656Z,1.10
2023-01-21T13:56:44.515Z,1.00
2023-01-21T13:59:27.748Z,1.00
2023-01-21T14:02:00.575Z,1.00
2023-01-21T14:04:45.476Z,1.00
2023-01-21T14:07:17.682Z,1.00
2023-01-21T14:09:53.714Z,1.00
2023-01-21T14:13:01.897Z,1.00
2023-01-21T14:16:07.196Z,1.00
2023-01-21T14:18:55.488Z,1.00
2023-01-21T14:21:40.450Z,0.90
2023-01-21T14:24:27.830Z,0.80
2023-01-21T14:27:07.158Z,0.70
2023-01-21T14:29:46.527Z,0.70
2023-01-21T14:32:42.168Z,0.60
2023-01-21T14:35:19.938Z,0.60
2023-01-21T14:38:18.573Z,0.60
2023-01-21T14:41:02.532Z,0.60
2023-01-21T14:43:32.116Z,0.60
2023-01-21T14:46:00.558Z,0.50
2023-01-21T14:48:42.060Z,0.50
2023-01-21T14:51:13.212Z,0.50
2023-01-21T14:53:51.408Z,0.50
2023-01-21T14:56:33.695Z,0.50
2023-01-21T14:59:04.837Z,0.50
2023-01-21T15:01:38.050Z,0.50
2023-01-21T15:04:21.669Z,0.50
2023-01-21T15:06:53.096Z,0.50
2023-01-21T15:09:27.171Z,0.50
2023-01-21T15:12:06.413Z,0.50
2023-01-21T15:14:39.433Z,0.50
2023-01-21T15:17:46.055Z,0.50
2023-01-21T15:20:35.698Z,0.50
2023-01-21T15:23:24.391Z,0.50
2023-01-21T15:26:11.096Z,0.50
2023-01-21T15:28:57.710Z,0.40
2023-01-21T15:31:24.573Z,0.30
2023-01-21T15:33:58.864Z,0.30
2023-01-21T15:36:30.966Z,0.30
2023-01-21T15:39:22.843Z,0.30
2023-01-21T15:42:09.553Z,0.10
2023-01-21T15:45:23.687Z,0.10
2023-01-21T15:48:19.936Z,0.10
2023-01-21T15:51:01.706Z,0.10
2023-01-21T15:54:00.175Z,0.00
2023-01-21T15:56:51.086Z,0.00
2023-01-21T15:59:35.740Z,-0.10
2023-01-21T16:02:42.087Z,-0.10
2023-01-21T16:05:11.475Z,-0.10
2023-01-21T16:08:14.361Z,-0.10
2023-01-21T16:10:52.674Z,-0.10
2023-01-21T16:13:38.206Z,-0.10
2023-01-21T16:16:32.295Z,-0.10
2023-01-21T16:19:03.316Z,-0.10
2023-01-21T16:21:36.548Z,-0.10
2023-01-21T16:24:11.280Z,-0.10
2023-01-21T16:26:38.008Z,-0.10
2023-01-21T16:29:11.185Z,-0.10
2023-01-21T16:32:00.837Z,-0.10
2023-01-21T16:34:36.570Z,-0.10
2023-01-21T16:37:06.563Z,-0.10
2023-01-21T16:39:33.604Z,-0.20
2023-01-21T16:42:05.753Z,-0.10
2023-01-21T16:44:34.101Z,-0.10
2023-01-21T16:47:02.054Z,-0.10
2023-01-21T16:49:29.112Z,-0.10
2023-01-21T16:52:02.032Z,-0.10
2023-01-21T16:54:30.986Z,-0.10
2023-01-21T16:57:01.849Z,-0.10
2023-01-21T16:59:44.518Z,-0.10
2023-01-21T17:02:28.505Z,-0.10
2023-01-21T17:04:57.704Z,0.00
2023-01-21T17:07:46.749Z,-0.10
2023-01-21T17:10:24.545Z,-0.10
2023-01-21T17:12:58.861Z,-0.10
2023-01-21T17:15:30.576Z,-0.10
2023-01-21T17:18:00.435Z,-0.10
2023-01-21T17:20:38.456Z,-0.10
2023-01-21T17:23:20.901Z,-0.20
2023-01-21T17:25:58.697Z,-0.20
2023-01-21T17:29:03.223Z,-0.10
2023-01-21T17:31:34.793Z,-0.10
2023-01-21T17:34:17.739Z,-0.10
2023-01-21T17:36:50.463Z,-0.10
2023-01-21T17:39:47.388Z,-0.10
2023-01-21T17:42:16.607Z,-0.20
2023-01-21T17:44:49.161Z,-0.10
2023-01-21T17:47:26.477Z,-0.20
2023-01-21T17:50:34.335Z,-0.20
2023-01-21T17:53:02.954Z,-0.10
2023-01-21T17:55:31.538Z,-0.20
2023-01-21T17:58:00.826Z,-0.10
2023-01-21T18:00:27.601Z,-0.10
2023-01-21T18:02:54.345Z,-0.10
2023-01-21T18:05:21.235Z,-0.10
2023-01-21T18:07:48.164Z,-0.10
2023-01-21T18:10:24.518Z,-0.10
2023-01-21T18:12:51.479Z,0.00
2023-01-21T18:15:20.510Z,0.00
2023-01-21T18:17:54.087Z,0.00
2023-01-21T18:20:25.141Z,0.00
2023-01-21T18:22:52.925Z,-0.10
2023-01-21T18:25:20.246Z,-0.10
2023-01-21T18:27:54.391Z,-0.10
2023-01-21T18:30:25.150Z,-0.10
2023-01-21T18:32:52.147Z,-0.10
2023-01-21T18:35:21.682Z,-0.10
2023-01-21T18:37:48.810Z,-0.10
2023-01-21T18:40:18.346Z,-0.10
2023-01-21T18:42:46.470Z,-0.10
2023-01-21T18:45:16.474Z,-0.10
2023-01-21T18:47:44.162Z,-0.10
2023-01-21T18:50:22.700Z,-0.10
2023-01-21T18:52:49.826Z,-0.10
2023-01-21T18:55:18.737Z,0.00
2023-01-21T18:57:48.276Z,0.00
2023-01-21T19:00:18.513Z,0.00
2023-01-21T19:02:45.359Z,-0.10
2023-01-21T19:05:12.425Z,-0.10
2023-01-21T19:07:39.180Z,-0.10
2023-01-21T19:10:06.722Z,-0.10
2023-01-21T19:12:33.428Z,-0.10
2023-01-21T19:15:01.867Z,-0.10
2023-01-21T19:17:30.813Z,-0.10
2023-01-21T19:19:57.706Z,-0.10
2023-01-21T19:22:24.449Z,-0.10
2023-01-21T19:24:51.239Z,-0.10
2023-01-21T19:27:26.482Z,-0.10
2023-01-21T19:29:53.200Z,-0.20
2023-01-21T19:32:19.990Z,-0.10
2023-01-21T19:34:46.709Z,-0.20
2023-01-21T19:37:19.886Z,-0.20
2023-01-21T19:39:46.696Z,-0.20
2023-01-21T19:42:15.115Z,-0.20
2023-01-21T19:44:42.564Z,-0.20
2023-01-21T19:47:21.372Z,-0.20
2023-01-21T19:49:48.076Z,-0.20
2023-01-21T19:52:15.060Z,-0.30
2023-01-21T19:54:41.736Z,-0.20
2023-01-21T19:57:14.394Z,-0.20
2023-01-21T19:59:42.672Z,-0.30
2023-01-21T20:02:11.234Z,-0.30
2023-01-21T20:04:37.953Z,-0.30
2023-01-21T20:07:05.410Z,-0.30
2023-01-21T20:09:32.676Z,-0.30
2023-01-21T20:12:02.053Z,-0.30
2023-01-21T20:14:30.879Z,-0.30
2023-01-21T20:16:57.590Z,-0.30
2023-01-21T20:19:24.616Z,-0.40
2023-01-21T20:22:01.274Z,-0.30
2023-01-21T20:24:30.383Z,-0.30
2023-01-21T20:26:58.374Z,-0.40
2023-01-21T20:29:26.887Z,-0.30
2023-01-21T20:31:54.470Z,-0.40
2023-01-21T20:34:21.327Z,-0.30
2023-01-21T20:36:49.677Z,-0.40
2023-01-21T20:39:16.478Z,-0.40
2023-01-21T20:41:43.503Z,-0.30
2023-01-21T20:44:10.562Z,-0.30
2023-01-21T20:46:38.634Z,-0.30
2023-01-21T20:49:05.485Z,-0.30
2023-01-21T20:51:32.203Z,-0.30
2023-01-21T20:53:58.973Z,-0.30
2023-01-21T20:56:28.981Z,-0.30
2023-01-21T20:58:55.920Z,-0.30
2023-01-21T21:01:24.797Z,-0.30
2023-01-21T21:03:52.266Z,-0.30
2023-01-21T21:06:22.067Z,-0.30
2023-01-21T21:08:49.587Z,-0.30
2023-01-21T21:11:17.407Z,-0.30
2023-01-21T21:13:46.915Z,-0.40
2023-01-21T21:16:27.756Z,-0.40
2023-01-21T21:18:56.160Z,-0.40
2023-01-21T21:21:24.001Z,-0.30
2023-01-21T21:23:52.527Z,-0.40
2023-01-21T21:26:24.491Z,-0.40
2023-01-21T21:28:55.737Z,-0.40
2023-01-21T21:31:22.994Z,-0.40
2023-01-21T21:33:50.186Z,-0.40
2023-01-21T21:36:19.825Z,-0.40
2023-01-21T21:38:47.448Z,-0.40
2023-01-21T21:41:37.867Z,-0.50
2023-01-21T21:44:06.227Z,-0.50
2023-01-21T21:46:51.733Z,-0.60
2023-01-21T21:49:18.790Z,-0.60
2023-01-21T21:51:45.932Z,-0.60
2023-01-21T21:54:15.187Z,-0.70
2023-01-21T21:56:43.185Z,-0.70
2023-01-21T21:59:11.971Z,-0.70
2023-01-21T22:01:40.447Z,-0.70
2023-01-21T22:04:07.303Z,-0.60
2023-01-21T22:06:36.279Z,-0.70
2023-01-21T22:09:03.375Z,-0.70
2023-01-21T22:11:30.354Z,-0.70
2023-01-21T22:13:57.727Z,-0.60
2023-01-21T22:16:28.850Z,-0.60
2023-01-21T22:18:57.458Z,-0.60
2023-01-21T22:21:32.863Z,-0.60
2023-01-21T22:24:01.341Z,-0.60
2023-01-21T22:26:28.713Z,-0.60
2023-01-21T22:28:55.715Z,-0.60
2023-01-21T22:31:24.767Z,-0.60
2023-01-21T22:33:51.569Z,-0.60
2023-01-21T22:36:20.478Z,-0.60
2023-01-21T22:38:47.544Z,-0.60
2023-01-21T22:41:16.514Z,-0.60
2023-01-21T22:43:44.897Z,-0.60
2023-01-21T22:46:13.490Z,-0.50
2023-01-21T22:48:41.562Z,-0.60
2023-01-21T22:51:11.194Z,-0.60
2023-01-21T22:53:40.127Z,-0.60
2023-01-21T22:56:07.336Z,-0.50
2023-01-21T22:58:34.745Z,-0.60
2023-01-21T23:01:05.064Z,-0.60
2023-01-21T23:03:31.854Z,-0.50
2023-01-21T23:06:08.527Z,-0.50
2023-01-21T23:08:38.139Z,-0.50
2023-01-21T23:11:07.339Z,-0.50
2023-01-21T23:13:34.904Z,-0.50
2023-01-21T23:16:01.898Z,-0.50
2023-01-21T23:18:29.457Z,-0.50
2023-01-21T23:20:56.447Z,-0.40
2023-01-21T23:23:24.759Z,-0.40
2023-01-21T23:25:51.541Z,-0.40
2023-01-21T23:28:18.286Z,-0.40
2023-01-21T23:30:45.150Z,-0.40
2023-01-21T23:33:12.196Z,-0.40
2023-01-21T23:35:39.235Z,-0.40
2023-01-21T23:38:05.920Z,-0.40
2023-01-21T23:40:32.734Z,-0.30
2023-01-21T23:42:59.451Z,-0.30
2023-01-21T23:45:26.609Z,-0.30
2023-01-21T23:47:54.473Z,-0.30
2023-01-21T23:50:21.269Z,-0.30
2023-01-21T23:52:48.040Z,-0.40
2023-01-21T23:55:14.721Z,-0.30
2023-01-21T23:57:41.596Z,-0.30
